Time;durP1;ratioP1;P1;durP2;ratioP2;P2;SDS_P1;SDS_P2;PMS_P1;PMS_P2;Temp;Humidity;BMP_temperature;BMP_pressure;BME280_temperature;BME280_humidity;BME280_pressure;Samples;Min_cycle;Max_cycle;Signal;HPM_P1;HPM_P2
2022/08/24 00:01:07;;;;;;;20.92;11.68;;;;;;;19.70;80.25;94978.06;5022023;28;20135;-86
2022/08/24 00:03:34;;;;;;;16.43;10.97;;;;;;;17.75;80.57;94676.78;5021796;28;20056;-86
2022/08/24 00:06:00;;;;;;;17.50;10.95;;;;;;;19.45;81.59;94955.72;5019394;28;20779;-86
2022/08/24 00:08:27;;;;;;;16.13;10.88;;;;;;;19.26;81.33;94914.03;5020509;28;20044;-87
2022/08/24 00:10:52;;;;;;;22.15;11.20;;;;;;;19.81;81.00;95006.91;5020238;28;20037;-86
2022/08/24 00:13:17;;;;;;;18.23;12.50;;;;;;;18.05;81.64;94747.19;5019814;28;20045;-87
2022/08/24 00:15:43;;;;;;;26.02;11.32;;;;;;;18.89;80.29;94886.31;5019822;28;20122;-86
2022/08/24 00:18:09;;;;;;;21.83;11.57;;;;;;;18.76;80.18;94886.59;5022171;28;20144;-86
2022/08/24 00:20:36;;;;;;;19.33;11.48;;;;;;;19.49;81.00;95023.88;5019969;28;20049;-86
2022/08/24 00:23:02;;;;;;;19.20;13.13;;;;;;;19.14;81.70;94991.97;5019486;28;20049;-86
2022/08/24 00:25:28;;;;;;;19.98;12.27;;;;;;;17.93;81.58;94824.94;5019242;28;20095;-86
2022/08/24 00:27:54;;;;;;;23.48;12.73;;;;;;;19.13;81.64;95006.53;5020576;28;20504;-86
2022/08/24 00:30:20;;;;;;;21.42;12.95;;;;;;;19.22;81.66;95036.00;5020310;28;20037;-85
2022/08/24 00:32:47;;;;;;;20.50;12.68;;;;;;;17.46;81.61;94781.41;5018893;28;20072;-86
2022/08/24 00:35:17;;;;;;;19.80;12.68;;;;;;;18.65;82.61;95031.25;5019058;28;20427;-86
2022/08/24 00:37:44;;;;;;;22.17;12.65;;;;;;;18.95;82.72;95039.25;5019574;28;20041;-86
2022/08/24 00:40:18;;;;;;;20.67;14.05;;;;;;;18.88;82.84;95037.09;5019619;28;20106;-86
2022/08/24 00:42:44;;;;;;;19.05;12.90;;;;;;;18.66;82.46;95013.25;5019021;28;20052;-86
2022/08/24 00:45:12;;;;;;;21.63;13.63;;;;;;;18.84;83.48;95047.69;5018485;28;20037;-86
2022/08/24 00:47:50;;;;;;;22.17;14.18;;;;;;;18.54;83.17;95024.66;5019123;28;20156;-87
2022/08/24 00:50:24;;;;;;;24.48;14.48;;;;;;;18.57;84.19;94991.03;5020169;28;20475;-87
2022/08/24 00:52:58;;;;;;;24.92;14.88;;;;;;;19.18;83.76;95048.53;5018629;28;20041;-86
2022/08/24 00:55:42;;;;;;;22.42;13.50;;;;;;;18.50;82.29;94959.31;5018837;28;20503;-87
2022/08/24 00:58:15;;;;;;;20.63;13.95;;;;;;;19.19;82.61;95050.09;5020995;28;20103;-87
2022/08/24 01:00:45;;;;;;;26.58;15.32;;;;;;;19.27;82.28;95051.94;5019261;28;20478;-87
2022/08/24 01:03:12;;;;;;;22.38;15.07;;;;;;;18.69;82.73;94980.38;5018980;28;20052;-87
2022/08/24 01:05:38;;;;;;;18.63;12.70;;;;;;;18.85;82.37;94994.75;5018400;28;20115;-87
2022/08/24 01:08:06;;;;;;;25.88;14.50;;;;;;;18.74;81.17;94974.78;5018891;28;20084;-87
2022/08/24 01:10:37;;;;;;;19.13;13.75;;;;;;;19.09;81.51;95040.53;5018941;28;20045;-86
2022/08/24 01:13:05;;;;;;;23.55;14.60;;;;;;;18.70;81.13;94949.69;5018810;28;20072;-87
2022/08/24 01:15:41;;;;;;;24.38;14.13;;;;;;;18.68;80.44;94965.38;5019533;28;20029;-87
2022/08/24 01:21:04;;;;;;;22.48;13.10;;;;;;;19.12;81.76;95056.00;5021194;28;20564;-87
2022/08/24 01:23:39;;;;;;;19.05;13.70;;;;;;;18.90;80.92;95018.75;5019103;28;20049;-86
2022/08/24 01:26:07;;;;;;;18.55;13.13;;;;;;;19.30;80.31;95069.31;5018675;28;20041;-87
2022/08/24 01:28:35;;;;;;;21.70;13.88;;;;;;;18.69;80.53;94994.56;5019242;28;20048;-86
2022/08/24 01:31:00;;;;;;;18.17;12.88;;;;;;;19.27;80.43;95074.22;5018334;28;20041;-86
2022/08/24 01:33:30;;;;;;;20.33;13.68;;;;;;;17.99;80.13;94888.03;5018264;28;20234;-86
2022/08/24 01:36:08;;;;;;;21.92;14.02;;;;;;;18.09;80.56;94896.47;5017879;28;20040;-87
2022/08/24 01:38:34;;;;;;;27.77;13.00;;;;;;;18.83;80.66;95021.97;5019030;28;20144;-87
2022/08/24 01:41:02;;;;;;;29.25;13.20;;;;;;;19.21;80.34;95082.81;5018813;28;20029;-87
2022/08/24 01:43:28;;;;;;;19.45;13.77;;;;;;;19.28;80.07;95081.19;5017926;28;20037;-86
2022/08/24 01:45:54;;;;;;;16.67;12.70;;;;;;;19.27;79.89;95076.13;5018179;28;20033;-86
2022/08/24 01:48:21;;;;;;;25.48;14.20;;;;;;;19.02;80.98;95051.03;5019924;28;20064;-87
2022/08/24 01:50:46;;;;;;;18.50;13.32;;;;;;;18.31;81.97;94937.53;5017974;28;20052;-87
2022/08/24 01:53:12;;;;;;;24.58;12.50;;;;;;;18.51;80.57;94974.31;5017866;28;20113;-87
2022/08/24 01:55:40;;;;;;;23.17;12.95;;;;;;;18.57;80.40;94974.94;5017857;28;20033;-86
2022/08/24 01:58:06;;;;;;;21.67;12.88;;;;;;;19.25;79.59;95079.13;5017269;28;20569;-86
2022/08/24 02:00:32;;;;;;;20.33;13.68;;;;;;;19.26;80.14;95083.41;5017198;28;20033;-86
2022/08/24 02:02:58;;;;;;;18.80;13.27;;;;;;;18.42;81.26;94981.66;5016611;28;20428;-86
2022/08/24 02:05:24;;;;;;;20.25;12.50;;;;;;;19.23;80.59;95086.72;5017632;28;20038;-86
2022/08/24 02:07:51;;;;;;;20.30;12.68;;;;;;;18.30;79.44;94965.47;5017898;28;20068;-87
2022/08/24 02:10:17;;;;;;;23.08;13.48;;;;;;;18.53;80.83;95004.31;5017892;28;20450;-86
2022/08/24 02:12:56;;;;;;;26.15;16.42;;;;;;;19.08;80.46;95073.13;5016533;28;20132;-86
2022/08/24 02:15:26;;;;;;;36.85;19.48;;;;;;;18.67;80.69;95023.69;5018207;28;20044;-87
2022/08/24 02:17:52;;;;;;;29.10;17.50;;;;;;;18.91;79.39;95062.53;5016974;28;20080;-86
2022/08/24 02:20:20;;;;;;;28.30;20.30;;;;;;;19.02;80.52;95104.78;5016654;28;20126;-86
2022/08/24 02:22:46;;;;;;;33.85;21.95;;;;;;;18.87;81.72;95092.72;5017256;28;20567;-86
2022/08/24 02:25:12;;;;;;;33.25;20.73;;;;;;;18.71;81.95;95050.66;5017114;28;20122;-86
2022/08/24 02:27:38;;;;;;;31.40;20.98;;;;;;;18.82;82.42;95079.50;5017864;28;20480;-86
2022/08/24 02:30:04;;;;;;;39.10;22.58;;;;;;;18.83;82.88;95082.97;5020892;28;20064;-86
2022/08/24 02:32:29;;;;;;;35.63;23.55;;;;;;;19.05;81.19;95093.38;5020513;28;20080;-86
2022/08/24 02:34:55;;;;;;;36.05;23.38;;;;;;;18.87;81.05;95057.81;5020183;28;20033;-86
2022/08/24 02:37:20;;;;;;;33.78;23.92;;;;;;;17.72;80.96;94891.97;5019236;28;20042;-86
2022/08/24 02:39:46;;;;;;;39.67;24.55;;;;;;;18.41;81.22;95031.09;5022212;28;20300;-86
2022/08/24 02:42:12;;;;;;;43.67;24.50;;;;;;;19.05;82.06;95109.53;5019580;28;20037;-86
2022/08/24 02:44:37;;;;;;;41.35;24.20;;;;;;;19.01;81.87;95100.53;5019348;28;20057;-88
2022/08/24 02:47:03;;;;;;;38.55;24.02;;;;;;;18.80;81.57;95064.81;5020408;28;20039;-86
2022/08/24 02:49:29;;;;;;;48.00;26.17;;;;;;;18.70;82.38;95057.13;5022527;28;20037;-85
2022/08/24 02:51:54;;;;;;;35.58;24.83;;;;;;;18.12;81.49;94980.91;5022413;28;20051;-86
2022/08/24 02:54:20;;;;;;;41.80;25.27;;;;;;;18.60;80.80;95058.34;5036362;28;20041;-86
2022/08/24 02:56:47;;;;;;;40.45;26.20;;;;;;;18.60;81.18;95049.47;5020290;28;20029;-86
2022/08/24 02:59:12;;;;;;;44.83;26.15;;;;;;;18.70;81.60;95067.88;5020166;28;20037;-87
2022/08/24 03:01:38;;;;;;;44.47;27.50;;;;;;;18.61;82.39;95056.44;5019991;28;20162;-86
2022/08/24 03:04:04;;;;;;;42.53;25.48;;;;;;;18.70;82.35;95068.66;5020132;28;20050;-86
2022/08/24 03:06:30;;;;;;;45.85;28.00;;;;;;;18.48;81.73;95031.34;5020045;28;20228;-86
2022/08/24 03:08:55;;;;;;;45.70;27.60;;;;;;;18.66;81.68;95048.16;5019560;28;20048;-86
2022/08/24 03:11:21;;;;;;;41.08;26.38;;;;;;;18.46;82.62;95017.50;5019493;28;20555;-86
2022/08/24 03:13:46;;;;;;;43.95;27.40;;;;;;;17.73;81.82;94904.28;5020354;28;20158;-86
2022/08/24 03:16:12;;;;;;;43.25;26.73;;;;;;;19.17;81.29;95123.00;5019684;28;20100;-86
2022/08/24 03:18:38;;;;;;;44.20;28.27;;;;;;;18.62;81.65;95034.59;5019005;28;20041;-86
2022/08/24 03:21:03;;;;;;;46.42;28.48;;;;;;;18.92;81.76;95107.84;5021232;28;20159;-86
2022/08/24 03:23:29;;;;;;;52.38;29.30;;;;;;;17.17;81.53;94817.81;5019021;28;20479;-86
2022/08/24 03:25:55;;;;;;;48.50;28.55;;;;;;;18.93;82.07;95122.09;5021715;28;20095;-86
2022/08/24 03:28:22;;;;;;;43.42;28.60;;;;;;;18.68;82.37;95087.03;5021755;28;20581;-86
2022/08/24 03:30:48;;;;;;;39.45;27.25;;;;;;;17.89;83.09;94967.00;5021455;28;20054;-86
2022/08/24 03:33:13;;;;;;;48.92;27.45;;;;;;;18.41;82.67;95050.66;5020816;28;20047;-86
2022/08/24 03:35:40;;;;;;;38.10;26.63;;;;;;;18.20;82.98;95046.38;5019114;28;20042;-86
2022/08/24 03:38:06;;;;;;;46.38;27.50;;;;;;;18.25;83.20;95038.91;5019171;28;20121;-86
2022/08/24 03:40:32;;;;;;;43.25;25.95;;;;;;;18.21;84.93;95112.38;5018739;28;20037;-87
2022/08/24 03:42:59;;;;;;;46.10;27.95;;;;;;;17.76;85.22;95015.50;5019340;28;20052;-86
2022/08/24 03:45:25;;;;;;;52.17;29.42;;;;;;;18.06;84.56;95046.63;5018389;28;20063;-86
2022/08/24 03:47:51;;;;;;;41.08;26.40;;;;;;;18.74;84.20;95128.69;5020496;28;20530;-86
2022/08/24 03:50:17;;;;;;;46.28;28.20;;;;;;;18.55;84.19;95082.66;5018909;28;20068;-86
2022/08/24 03:52:42;;;;;;;45.58;25.95;;;;;;;18.80;83.72;95129.28;5018786;28;20033;-86
2022/08/24 03:55:09;;;;;;;45.22;27.35;;;;;;;18.70;83.95;95110.84;5018517;28;20040;-86
2022/08/24 03:57:35;;;;;;;40.88;26.58;;;;;;;18.66;83.58;95112.63;5018536;28;20152;-86
2022/08/24 04:00:02;;;;;;;46.53;27.52;;;;;;;18.91;84.06;95127.03;5021060;28;20124;-86
2022/08/24 04:02:28;;;;;;;43.00;24.88;;;;;;;17.69;83.57;94947.06;5019059;28;20033;-86
2022/08/24 04:04:53;;;;;;;38.53;24.45;;;;;;;18.75;83.34;95106.09;5020416;28;20388;-86
2022/08/24 04:07:19;;;;;;;42.25;25.13;;;;;;;18.75;83.29;95081.13;5020784;28;20535;-86
2022/08/24 04:09:45;;;;;;;39.30;24.15;;;;;;;18.98;83.38;95113.84;5021504;28;20033;-86
2022/08/24 04:12:10;;;;;;;44.88;23.02;;;;;;;18.42;82.79;95035.34;5020739;28;20065;-85
2022/08/24 04:14:37;;;;;;;36.13;21.52;;;;;;;18.21;82.80;94999.66;5019131;28;20112;-87
2022/08/24 04:17:03;;;;;;;35.05;22.83;;;;;;;18.76;82.80;95071.97;5018794;28;20407;-85
2022/08/24 04:19:29;;;;;;;39.13;22.50;;;;;;;18.27;82.48;94992.97;5020277;28;20044;-85
2022/08/24 04:21:57;;;;;;;33.80;21.25;;;;;;;19.02;81.97;95101.31;5035862;28;20041;-85
2022/08/24 04:24:24;;;;;;;36.22;21.85;;;;;;;19.12;82.57;95106.31;5018817;28;20563;-85
2022/08/24 04:26:50;;;;;;;40.97;21.52;;;;;;;18.44;82.00;94990.16;5018226;28;20043;-85
2022/08/24 04:29:18;;;;;;;37.25;22.15;;;;;;;19.22;82.06;95106.66;5019454;28;20048;-86
2022/08/24 04:31:44;;;;;;;44.17;23.42;;;;;;;18.61;82.66;94991.97;5020524;28;20041;-85
2022/08/24 04:34:11;;;;;;;44.80;21.95;;;;;;;18.97;82.74;95053.94;5019306;28;20138;-85
2022/08/24 04:36:40;;;;;;;32.92;21.30;;;;;;;19.35;82.88;95104.03;5018312;28;20038;-85
2022/08/24 04:39:05;;;;;;;31.00;22.55;;;;;;;19.58;81.54;95138.34;5018581;28;20572;-84
2022/08/24 04:41:31;;;;;;;38.03;22.48;;;;;;;19.53;81.90;95133.16;5019462;28;20030;-85
2022/08/24 04:43:57;;;;;;;48.65;24.40;;;;;;;19.67;82.18;95145.56;5019933;28;20064;-85
2022/08/24 04:46:23;;;;;;;37.95;21.90;;;;;;;19.14;81.91;95055.69;5018184;28;20091;-85
2022/08/24 04:48:48;;;;;;;51.35;23.83;;;;;;;19.26;82.09;95078.03;5018770;28;20435;-85
2022/08/24 04:51:16;;;;;;;34.58;22.50;;;;;;;19.74;80.48;95145.81;5018309;28;20581;-85
2022/08/24 04:53:42;;;;;;;34.70;22.10;;;;;;;19.48;81.36;95138.75;5020047;28;20040;-86
2022/08/24 04:56:11;;;;;;;36.25;22.90;;;;;;;19.21;80.94;95075.53;5019591;28;20037;-86
2022/08/24 04:58:38;;;;;;;35.88;22.92;;;;;;;18.77;80.93;94996.41;5019294;28;20632;-84
2022/08/24 05:01:14;;;;;;;34.67;22.63;;;;;;;19.68;80.90;95141.75;5017678;28;20038;-85
2022/08/24 05:03:42;;;;;;;34.28;20.23;;;;;;;16.95;80.90;94735.84;5015578;28;20048;-85
2022/08/24 05:06:10;;;;;;;33.72;20.85;;;;;;;18.93;82.36;95047.63;5015980;28;20057;-84
2022/08/24 05:08:36;;;;;;;36.70;21.00;;;;;;;19.09;82.25;95064.72;5017569;28;20029;-85
2022/08/24 05:11:06;;;;;;;33.85;20.80;;;;;;;18.88;82.28;95059.38;5017518;28;20515;-85
2022/08/24 05:13:31;;;;;;;34.55;20.90;;;;;;;19.09;82.74;95117.69;5018371;28;20602;-85
2022/08/24 05:15:57;;;;;;;32.45;20.70;;;;;;;19.21;83.05;95113.19;5016496;28;20029;-85
2022/08/24 05:18:22;;;;;;;34.85;18.30;;;;;;;19.29;81.71;95111.53;5017768;28;20844;-85
2022/08/24 05:20:48;;;;;;;40.22;19.85;;;;;;;18.74;81.20;95001.66;5012471;28;20044;-85
2022/08/24 05:23:13;;;;;;;27.38;17.60;;;;;;;19.04;80.02;95043.44;4997282;28;20032;-85
2022/08/24 05:25:41;;;;;;;33.92;18.48;;;;;;;19.39;81.43;95115.69;5015019;28;20515;-84
2022/08/24 05:28:06;;;;;;;33.10;18.63;;;;;;;19.04;81.57;95018.47;5008685;28;20527;-86
2022/08/24 05:30:33;;;;;;;35.65;17.75;;;;;;;19.40;80.78;95130.72;5009201;28;20033;-85
2022/08/24 05:32:58;;;;;;;32.42;18.38;;;;;;;18.87;81.25;95041.69;5026430;28;20037;-86
2022/08/24 05:35:24;;;;;;;25.75;16.35;;;;;;;18.96;80.21;95013.94;5017788;28;20511;-86
2022/08/24 05:37:50;;;;;;;31.98;16.33;;;;;;;19.30;79.53;95056.63;5002872;28;20776;-85
2022/08/24 05:40:18;;;;;;;30.23;16.38;;;;;;;19.47;79.23;95093.34;4996711;28;20113;-86
2022/08/24 05:42:43;;;;;;;26.52;16.55;;;;;;;18.70;81.51;95001.50;4998804;28;20151;-86
2022/08/24 05:45:11;;;;;;;25.98;16.55;;;;;;;19.65;80.57;95121.66;4997592;28;20062;-85
2022/08/24 05:47:37;;;;;;;29.75;17.10;;;;;;;19.57;80.08;95087.56;5017440;28;20045;-86
2022/08/24 05:50:04;;;;;;;21.73;16.05;;;;;;;19.89;80.69;95129.81;5014288;28;20041;-85
2022/08/24 05:52:30;;;;;;;37.15;18.85;;;;;;;19.86;80.55;95103.56;5003085;28;20522;-86
2022/08/24 05:54:57;;;;;;;30.33;14.52;;;;;;;19.83;79.52;95081.91;5011786;28;20038;-86
2022/08/24 05:57:24;;;;;;;20.88;13.55;;;;;;;19.16;78.15;94951.28;5005740;28;20431;-86
2022/08/24 05:59:50;;;;;;;20.10;13.20;;;;;;;20.29;76.45;95126.50;5017654;28;20130;-86
2022/08/24 06:02:18;;;;;;;14.52;11.48;;;;;;;19.90;74.98;95103.69;5007726;28;20046;-85
2022/08/24 06:04:43;;;;;;;26.92;13.57;;;;;;;20.12;75.27;95124.81;5012900;28;20389;-86
2022/08/24 06:07:10;;;;;;;19.83;13.50;;;;;;;20.13;75.46;95118.31;5020885;28;20102;-86
2022/08/24 06:09:40;;;;;;;18.60;12.02;;;;;;;19.42;75.80;95024.41;5022381;28;20086;-86
2022/08/24 06:12:07;;;;;;;25.23;13.20;;;;;;;19.45;75.31;95022.97;5020721;28;20567;-86
2022/08/24 06:14:33;;;;;;;13.57;10.45;;;;;;;19.61;73.91;95091.16;5002332;28;20036;-86
2022/08/24 06:17:02;;;;;;;14.15;10.13;;;;;;;19.47;74.62;95037.66;5000798;28;20034;-85
2022/08/24 06:19:27;;;;;;;29.23;12.32;;;;;;;19.74;74.79;95035.47;5022115;28;20034;-86
2022/08/24 06:21:54;;;;;;;21.70;12.10;;;;;;;20.25;74.69;95125.59;5018817;28;20045;-86
2022/08/24 06:27:20;;;;;;;22.95;12.65;;;;;;;20.18;74.94;95133.44;5000410;28;20034;-86
2022/08/24 06:27:24;;;;;;;19.75;14.88;;;;;;;20.10;75.91;95094.72;5010950;28;20056;-86
2022/08/24 06:30:02;;;;;;;20.00;12.57;;;;;;;19.82;76.01;95058.81;5021667;28;20041;-86
2022/08/24 06:32:28;;;;;;;22.52;12.52;;;;;;;19.44;74.82;94983.75;5019647;28;20096;-86
2022/08/24 06:34:57;;;;;;;19.40;12.45;;;;;;;20.24;75.42;95124.00;5021704;28;20463;-86
2022/08/24 06:37:25;;;;;;;21.27;13.57;;;;;;;18.73;75.38;94884.56;5019418;28;20041;-86
2022/08/24 06:39:55;;;;;;;15.55;11.00;;;;;;;19.86;74.92;95065.88;5001080;28;20034;-85
2022/08/24 06:42:23;;;;;;;15.88;11.52;;;;;;;19.89;74.63;95069.81;5019877;28;20041;-86
2022/08/24 06:44:48;;;;;;;17.35;10.25;;;;;;;19.98;73.41;95065.91;5021473;28;20091;-86
2022/08/24 06:47:14;;;;;;;12.63;10.00;;;;;;;20.34;73.78;95126.31;5019100;28;20416;-86
2022/08/24 06:49:39;;;;;;;17.85;10.50;;;;;;;19.39;74.67;94965.13;5019349;28;20545;-86
2022/08/24 06:52:05;;;;;;;21.00;10.82;;;;;;;19.83;74.38;95017.34;5014574;28;20116;-86
2022/08/24 06:54:31;;;;;;;16.02;10.13;;;;;;;20.45;73.35;95097.78;5008230;28;20369;-86
2022/08/24 06:56:57;;;;;;;17.38;10.57;;;;;;;20.53;73.39;95102.28;5009478;28;20057;-86
2022/08/24 06:59:26;;;;;;;22.05;10.15;;;;;;;20.34;72.98;95072.44;5009561;28;20493;-86
2022/08/24 07:01:54;;;;;;;10.48;8.48;;;;;;;20.37;71.50;95050.19;5018976;28;20030;-85
2022/08/24 07:04:23;;;;;;;12.40;8.52;;;;;;;21.03;71.01;95136.91;5007327;28;20417;-86
2022/08/24 07:06:50;;;;;;;15.35;7.70;;;;;;;20.93;70.12;95144.69;5014921;28;20806;-86
2022/08/24 07:09:15;;;;;;;13.23;7.25;;;;;;;21.13;69.94;95131.03;5019168;28;20428;-86
2022/08/24 07:11:41;;;;;;;14.15;8.00;;;;;;;20.93;69.33;95085.38;5000377;28;20057;-86
2022/08/24 07:14:07;;;;;;;15.27;6.93;;;;;;;21.16;68.74;95116.09;5018533;28;20025;-86
2022/08/24 07:16:33;;;;;;;15.77;8.40;;;;;;;21.39;69.38;95137.97;5017372;28;20037;-86
2022/08/24 07:19:01;;;;;;;10.48;6.97;;;;;;;21.36;68.21;95157.53;5001781;28;20045;-86
2022/08/24 07:21:27;;;;;;;10.20;7.50;;;;;;;21.41;68.62;95151.91;5020635;28;20087;-84
2022/08/24 07:23:58;;;;;;;19.38;7.85;;;;;;;21.54;68.87;95156.91;5020573;28;20046;-86
2022/08/24 07:26:27;;;;;;;15.40;7.60;;;;;;;21.45;66.89;95129.28;5021930;28;20040;-86
2022/08/24 07:28:59;;;;;;;11.75;7.28;;;;;;;21.32;67.21;95116.19;5018577;28;20124;-86
2022/08/24 07:31:25;;;;;;;9.10;7.03;;;;;;;21.24;67.36;95073.97;5018628;28;20580;-85
2022/08/24 07:33:51;;;;;;;10.65;7.28;;;;;;;21.59;67.49;95122.72;5007034;28;20374;-86
2022/08/24 07:36:18;;;;;;;9.32;6.80;;;;;;;21.16;67.32;95036.00;4998845;28;20065;-86
2022/08/24 07:38:44;;;;;;;10.35;6.38;;;;;;;21.82;67.03;95102.13;4999376;28;20038;-86
2022/08/24 07:41:09;;;;;;;11.45;6.18;;;;;;;21.88;65.30;95120.44;5014437;28;20039;-86
2022/08/24 07:43:35;;;;;;;12.30;7.22;;;;;;;22.02;65.25;95105.75;5017497;28;20132;-86
2022/08/24 07:46:00;;;;;;;15.75;8.18;;;;;;;22.00;64.59;95110.72;5014798;28;20144;-86
2022/08/24 07:48:27;;;;;;;14.05;7.32;;;;;;;21.84;65.39;95122.25;5017199;28;20040;-85
2022/08/24 07:50:53;;;;;;;12.73;6.55;;;;;;;21.00;64.44;94945.38;5001944;28;20061;-86
2022/08/24 07:53:18;;;;;;;9.82;6.95;;;;;;;22.03;64.16;95115.44;5018692;28;20168;-86
2022/08/24 07:55:55;;;;;;;9.20;6.88;;;;;;;22.19;64.40;95110.81;5015913;28;20075;-86
2022/08/24 07:58:21;;;;;;;11.35;6.82;;;;;;;21.95;64.20;95082.81;5007232;28;20538;-86
2022/08/24 08:00:47;;;;;;;10.45;6.47;;;;;;;21.84;64.11;95064.75;5019800;28;20034;-86
2022/08/24 08:03:13;;;;;;;8.80;6.20;;;;;;;22.59;63.62;95129.53;5018848;28;20033;-86
2022/08/24 08:05:39;;;;;;;12.10;6.47;;;;;;;22.51;62.86;95111.56;5022485;28;20360;-86
2022/08/24 08:08:05;;;;;;;12.82;6.43;;;;;;;21.91;63.73;95029.84;5009506;28;20547;-86
2022/08/24 08:10:34;;;;;;;16.80;7.10;;;;;;;22.14;63.55;95065.94;5000058;28;20070;-85
2022/08/24 08:13:03;;;;;;;10.15;7.07;;;;;;;22.27;63.70;95099.06;4998334;28;20094;-86
2022/08/24 08:15:29;;;;;;;7.90;6.00;;;;;;;21.82;63.71;95030.00;5014676;28;20463;-86
2022/08/24 08:17:55;;;;;;;10.25;5.18;;;;;;;22.25;63.02;95107.50;5019602;28;20511;-85
2022/08/24 08:20:20;;;;;;;10.15;5.05;;;;;;;21.89;61.64;95026.72;5018802;28;20037;-86
2022/08/24 08:25:30;;;;;;;6.38;3.88;;;;;;;22.34;59.43;95085.72;5019964;28;20122;-86
2022/08/24 08:27:56;;;;;;;8.60;4.78;;;;;;;22.43;60.01;95088.25;5018585;28;20493;-87
2022/08/24 08:30:22;;;;;;;10.73;4.60;;;;;;;22.41;59.24;95053.47;5011032;28;20040;-86
2022/08/24 08:32:48;;;;;;;10.27;5.15;;;;;;;22.76;59.13;95077.03;5006074;28;20049;-86
2022/08/24 08:35:13;;;;;;;10.07;4.72;;;;;;;22.81;57.83;95090.28;5019353;28;20100;-86
2022/08/24 08:37:39;;;;;;;8.35;3.90;;;;;;;22.51;58.32;95017.78;5005698;28;20049;-86
2022/08/24 08:40:11;;;;;;;7.97;4.65;;;;;;;22.14;58.37;94966.00;4997483;28;20030;-86
2022/08/24 08:42:43;;;;;;;5.07;4.28;;;;;;;23.31;57.34;95117.25;4997432;28;20439;-86
2022/08/24 08:45:28;;;;;;;8.75;4.57;;;;;;;22.93;57.39;95058.50;5010817;28;20042;-86
2022/08/24 08:48:22;;;;;;;9.52;4.35;;;;;;;23.02;58.19;95105.06;5017102;28;20144;-87
2022/08/24 08:51:07;;;;;;;8.65;4.85;;;;;;;23.43;57.97;95127.91;5011234;28;20037;-86
2022/08/24 08:54:03;;;;;;;8.68;4.75;;;;;;;23.46;56.76;95119.09;5008551;28;20450;-86
2022/08/24 08:56:28;;;;;;;10.73;4.93;;;;;;;23.58;57.41;95115.47;5016661;28;20048;-86
2022/08/24 08:59:06;;;;;;;11.55;5.03;;;;;;;23.57;56.93;95105.03;5017430;28;20855;-86
2022/08/24 09:01:40;;;;;;;9.90;4.72;;;;;;;23.75;56.86;95103.44;4998429;28;20501;-86
2022/08/24 09:04:21;;;;;;;14.88;5.15;;;;;;;24.03;57.59;95122.13;5013812;28;20143;-86
2022/08/24 09:06:56;;;;;;;13.00;5.03;;;;;;;24.04;55.88;95113.63;4996281;28;20144;-86
2022/08/24 09:09:42;;;;;;;7.35;4.30;;;;;;;24.38;55.63;95133.59;5005651;28;20135;-85
2022/08/24 09:12:30;;;;;;;8.65;4.65;;;;;;;24.64;56.11;95119.31;5018584;28;20067;-86
2022/08/24 09:15:14;;;;;;;7.18;5.03;;;;;;;24.69;56.08;95120.91;5016003;28;20040;-86
2022/08/24 09:17:51;;;;;;;10.35;4.85;;;;;;;24.73;53.71;95121.75;4999455;28;20072;-86
2022/08/24 09:20:26;;;;;;;12.73;5.25;;;;;;;24.70;54.25;95123.28;5016874;28;20449;-86
2022/08/24 09:23:21;;;;;;;4.93;4.40;;;;;;;24.56;54.54;95087.81;5010229;28;20611;-86
2022/08/24 09:26:01;;;;;;;12.38;5.30;;;;;;;24.72;53.30;95112.06;4993597;28;20560;-86
2022/08/24 09:28:57;;;;;;;7.80;5.18;;;;;;;24.88;52.50;95109.97;5017812;28;20061;-85
2022/08/24 09:31:30;;;;;;;10.05;4.65;;;;;;;24.95;52.97;95110.09;5003142;28;20061;-85
2022/08/24 09:34:04;;;;;;;11.35;5.68;;;;;;;24.92;52.69;95103.47;5009803;28;20045;-85
2022/08/24 09:37:01;;;;;;;6.63;4.90;;;;;;;24.64;52.34;95078.66;5004996;28;20040;-85
2022/08/24 09:39:42;;;;;;;11.90;5.57;;;;;;;25.05;52.75;95100.53;5006083;28;20052;-85
2022/08/24 09:42:38;;;;;;;10.77;5.18;;;;;;;25.18;52.03;95097.22;5019660;28;20053;-85
2022/08/24 09:45:16;;;;;;;6.93;4.57;;;;;;;25.12;52.19;95097.91;5005389;28;20042;-86
2022/08/24 09:48:09;;;;;;;11.00;5.22;;;;;;;24.80;54.17;95035.84;5013424;28;20034;-85
2022/08/24 09:50:59;;;;;;;10.05;5.30;;;;;;;24.77;53.22;95024.97;5012647;28;20053;-85
2022/08/24 09:53:43;;;;;;;11.23;5.18;;;;;;;25.44;51.71;95084.75;5004317;28;20041;-86
2022/08/24 09:56:39;;;;;;;12.77;5.30;;;;;;;25.36;52.61;95083.88;5002300;28;20048;-86
2022/08/24 09:59:14;;;;;;;10.80;6.20;;;;;;;25.91;52.42;95067.81;5020763;28;20069;-85
2022/08/24 10:02:01;;;;;;;13.90;5.53;;;;;;;26.74;50.48;95071.63;5020339;28;20045;-86
2022/08/24 10:04:30;;;;;;;7.20;4.38;;;;;;;27.56;48.20;95075.59;5021578;28;20068;-85
2022/08/24 10:07:10;;;;;;;13.23;4.70;;;;;;;28.51;44.71;95059.78;5020525;28;20093;-85
2022/08/24 10:10:02;;;;;;;8.60;4.05;;;;;;;29.24;42.41;95068.22;5020052;28;20164;-85
2022/08/24 10:12:56;;;;;;;7.75;4.15;;;;;;;30.10;40.13;95051.03;5014586;28;20048;-85
2022/08/24 10:15:51;;;;;;;7.88;4.00;;;;;;;30.50;39.04;94983.91;5019159;28;20037;-85
2022/08/24 10:18:47;;;;;;;7.50;3.92;;;;;;;31.21;37.31;95012.50;5005454;28;20065;-87
2022/08/24 10:21:39;;;;;;;6.95;3.85;;;;;;;32.13;37.71;95038.66;5000861;28;20056;-86
2022/08/24 10:24:28;;;;;;;6.68;5.03;;;;;;;32.31;37.56;95050.19;5020924;28;20952;-86
2022/08/24 10:27:00;;;;;;;10.20;4.70;;;;;;;32.48;36.17;95040.91;5019221;28;20057;-86
2022/08/24 10:29:38;;;;;;;4.30;3.30;;;;;;;32.81;35.35;95043.88;5007091;28;20105;-86
2022/08/24 10:32:32;;;;;;;5.38;3.65;;;;;;;32.89;34.56;95015.84;4999457;28;20555;-86
2022/08/24 10:35:12;;;;;;;6.07;4.38;;;;;;;32.49;34.11;95000.50;4983699;28;20136;-87
2022/08/24 10:39:39;;;;;;;9.65;3.67;;;;;;;32.91;33.80;95031.91;5000519;28;20042;-86
2022/08/24 10:40:58;;;;;;;7.10;4.32;;;;;;;33.32;35.23;95039.81;5011263;28;20301;-85
2022/08/24 10:43:32;;;;;;;9.60;4.28;;;;;;;33.76;34.11;95029.47;5019360;28;20131;-85
2022/08/24 10:46:17;;;;;;;5.72;3.72;;;;;;;33.25;33.77;95042.69;5021013;28;20147;-86
2022/08/24 10:48:49;;;;;;;8.80;4.68;;;;;;;33.42;34.63;95047.03;5001677;28;20119;-85
2022/08/24 10:51:33;;;;;;;11.10;4.45;;;;;;;33.26;35.01;95042.25;5016847;28;20037;-85
2022/08/24 10:53:59;;;;;;;8.55;3.58;;;;;;;32.73;35.40;95042.47;5020088;28;20573;-85
2022/08/24 10:56:42;;;;;;;11.70;5.30;;;;;;;32.37;36.34;95037.53;5023280;28;20041;-85
2022/08/24 10:59:35;;;;;;;10.23;4.50;;;;;;;31.72;38.77;95039.66;5010734;28;20475;-85
2022/08/24 11:02:07;;;;;;;9.27;4.80;;;;;;;31.19;38.88;95037.59;5001249;28;20341;-84
2022/08/24 11:04:34;;;;;;;8.13;4.82;;;;;;;31.16;39.84;95043.09;5016156;28;20049;-85
2022/08/24 11:07:20;;;;;;;9.40;4.20;;;;;;;30.69;39.80;95026.34;5019111;28;20448;-84
2022/08/24 11:09:55;;;;;;;7.90;4.75;;;;;;;30.65;39.78;95044.75;5002552;28;20595;-84
2022/08/24 11:12:27;;;;;;;6.57;4.45;;;;;;;30.60;40.13;95036.97;5019104;28;20029;-85
2022/08/24 11:14:55;;;;;;;6.45;4.28;;;;;;;30.45;38.55;95003.47;5011847;28;20038;-84
2022/08/24 11:17:24;;;;;;;17.35;4.93;;;;;;;30.87;39.22;95032.41;5003318;28;20128;-85
2022/08/24 11:19:50;;;;;;;9.38;4.32;;;;;;;30.86;38.44;94975.31;5013552;28;20503;-85
2022/08/24 11:23:08;;;;;;;8.90;4.68;;;;;;;30.94;39.07;94995.97;5018779;28;20037;-85
2022/08/24 11:25:36;;;;;;;9.20;5.50;;;;;;;31.25;37.93;95022.25;5002224;28;20057;-85
2022/08/24 11:28:11;;;;;;;12.18;4.68;;;;;;;31.13;38.12;95017.28;5020566;28;20092;-84
2022/08/24 11:30:39;;;;;;;7.15;3.65;;;;;;;30.59;38.09;94970.50;5018977;28;20475;-84
2022/08/24 11:33:22;;;;;;;10.75;4.80;;;;;;;29.87;37.41;94826.63;5019281;28;20045;-84
2022/08/24 11:35:48;;;;;;;10.80;3.85;;;;;;;30.52;40.22;94970.59;5020573;28;20037;-84
2022/08/24 11:38:25;;;;;;;14.30;4.57;;;;;;;30.14;41.29;95016.22;5019647;28;20038;-84
2022/08/24 11:41:15;;;;;;;10.98;4.57;;;;;;;30.10;42.06;95020.19;5019584;28;20041;-85
2022/08/24 11:43:56;;;;;;;11.35;4.25;;;;;;;30.30;42.74;95021.97;4999926;28;20041;-83